createdAt,value
2019-04-03T00:02:04.039Z,7.50
2019-04-03T00:04:31.126Z,7.50
2019-04-03T00:06:58.649Z,7.50
2019-04-03T00:09:26.253Z,7.60
2019-04-03T00:11:56.634Z,7.40
2019-04-03T00:14:24.238Z,7.40
2019-04-03T00:16:54.429Z,7.50
2019-04-03T00:19:22.297Z,7.60
2019-04-03T00:21:50.639Z,7.70
2019-04-03T00:24:18.735Z,7.60
2019-04-03T00:26:46.296Z,7.60
2019-04-03T00:29:14.058Z,7.60
2019-04-03T00:31:47.681Z,7.40
2019-04-03T00:34:18.328Z,7.40
2019-04-03T00:36:45.890Z,7.30
2019-04-03T00:39:13.487Z,7.40
2019-04-03T00:41:42.346Z,7.30
2019-04-03T00:44:09.968Z,7.20
2019-04-03T00:46:37.848Z,7.20
2019-04-03T00:49:05.828Z,7.20
2019-04-03T00:51:36.577Z,7.10
2019-04-03T00:54:04.255Z,7.10
2019-04-03T00:56:34.452Z,7.10
2019-04-03T00:59:02.120Z,7.10
2019-04-03T01:01:30.106Z,7.10
2019-04-03T01:03:58.887Z,7.10
2019-04-03T01:06:28.696Z,7.00
2019-04-03T01:08:59.018Z,7.00
2019-04-03T01:11:26.248Z,7.00
2019-04-03T01:13:53.833Z,6.90
2019-04-03T01:16:21.669Z,6.80
2019-04-03T01:18:49.559Z,6.80
2019-04-03T01:21:17.208Z,6.80
2019-04-03T01:23:44.970Z,6.60
2019-04-03T01:26:13.322Z,6.60
2019-04-03T01:28:41.956Z,6.50
2019-04-03T01:31:10.303Z,6.60
2019-04-03T01:33:37.921Z,6.60
2019-04-03T01:36:05.537Z,6.60
2019-04-03T01:38:33.404Z,6.70
2019-04-03T01:41:01.040Z,6.60
2019-04-03T01:43:29.078Z,6.60
2019-04-03T01:45:57.240Z,6.60
2019-04-03T01:48:24.926Z,6.60
2019-04-03T01:50:52.681Z,5.80
2019-04-03T01:53:20.307Z,6.40
2019-04-03T01:55:48.582Z,6.40
2019-04-03T01:58:16.071Z,6.40
2019-04-03T02:00:43.646Z,6.40
2019-04-03T02:03:11.171Z,6.30
2019-04-03T02:05:38.758Z,6.30
2019-04-03T02:08:16.975Z,6.30
2019-04-03T02:10:45.057Z,6.20
2019-04-03T02:13:28.068Z,6.20
2019-04-03T02:16:01.628Z,6.10
2019-04-03T02:18:32.981Z,6.00
2019-04-03T02:21:03.080Z,6.00
2019-04-03T02:23:31.235Z,6.00
2019-04-03T02:25:58.831Z,6.00
2019-04-03T02:28:26.596Z,5.90
2019-04-03T02:30:54.633Z,5.90
2019-04-03T02:33:22.257Z,6.10
2019-04-03T02:35:49.833Z,6.10
2019-04-03T02:38:21.317Z,6.10
2019-04-03T02:40:47.142Z,6.20
2019-04-03T02:43:15.600Z,6.10
2019-04-03T02:45:43.431Z,6.20
2019-04-03T02:48:10.963Z,6.10
2019-04-03T02:50:38.748Z,6.20
2019-04-03T02:53:07.913Z,6.20
2019-04-03T02:55:39.337Z,6.20
2019-04-03T02:58:05.380Z,6.20
2019-04-03T03:00:36.439Z,6.20
2019-04-03T03:03:04.251Z,6.10
2019-04-03T03:05:35.015Z,6.10
2019-04-03T03:08:02.564Z,6.10
2019-04-03T03:10:31.918Z,6.00
2019-04-03T03:13:01.760Z,6.10
2019-04-03T03:15:29.368Z,6.00
2019-04-03T03:17:57.398Z,5.20
2019-04-03T03:20:27.801Z,5.90
2019-04-03T03:22:56.959Z,5.80
2019-04-03T03:25:25.164Z,5.80
2019-04-03T03:27:53.561Z,5.70
2019-04-03T03:30:41.097Z,5.70
2019-04-03T03:33:19.304Z,5.70
2019-04-03T03:35:31.250Z,5.60
2019-04-03T03:37:53.296Z,5.60
2019-04-03T03:40:21.449Z,5.60
2019-04-03T03:43:09.321Z,5.50
2019-04-03T03:45:37.212Z,5.50
2019-04-03T03:48:08.554Z,5.50
2019-04-03T03:50:35.978Z,5.40
2019-04-03T03:53:04.149Z,5.40
2019-04-03T03:55:32.019Z,5.40
2019-04-03T03:58:00.690Z,5.30
2019-04-03T04:00:28.774Z,5.30
2019-04-03T04:02:57.691Z,5.50
2019-04-03T04:05:25.649Z,5.30
2019-04-03T04:07:54.559Z,5.20
2019-04-03T04:10:25.184Z,5.10
2019-04-03T04:12:53.085Z,5.20
2019-04-03T04:15:21.183Z,5.10
2019-04-03T04:17:50.955Z,5.10
2019-04-03T04:20:18.686Z,5.00
2019-04-03T04:22:50.802Z,5.00
2019-04-03T04:25:17.052Z,4.90
2019-04-03T04:27:44.860Z,4.90
2019-04-03T04:30:16.768Z,4.80
2019-04-03T04:32:46.201Z,4.80
2019-04-03T04:35:14.299Z,4.80
2019-04-03T04:37:42.074Z,4.80
2019-04-03T04:40:09.989Z,5.00
2019-04-03T04:42:37.717Z,5.30
2019-04-03T04:45:05.866Z,5.40
2019-04-03T04:47:33.579Z,5.40
2019-04-03T04:50:01.089Z,5.40
2019-04-03T04:52:28.634Z,5.40
2019-04-03T04:54:56.209Z,5.40
2019-04-03T04:57:23.855Z,5.40
2019-04-03T04:59:51.418Z,5.50
2019-04-03T05:02:19.871Z,5.50
2019-04-03T05:04:48.133Z,5.60
2019-04-03T05:07:17.088Z,5.60
2019-04-03T05:09:44.993Z,5.70
2019-04-03T05:12:12.665Z,5.90
2019-04-03T05:14:40.209Z,6.00
2019-04-03T05:17:07.823Z,6.10
2019-04-03T05:19:35.407Z,6.10
2019-04-03T05:22:02.981Z,6.20
2019-04-03T05:24:30.818Z,6.30
2019-04-03T05:26:58.539Z,6.40
2019-04-03T05:29:26.156Z,6.50
2019-04-03T05:31:54.130Z,6.50
2019-04-03T05:34:21.640Z,6.60
2019-04-03T05:36:49.193Z,6.70
2019-04-03T05:39:17.004Z,6.80
2019-04-03T05:41:44.888Z,6.80
2019-04-03T05:44:12.693Z,7.10
2019-04-03T05:46:40.593Z,7.30
2019-04-03T05:49:10.793Z,7.40
2019-04-03T05:51:37.955Z,7.70
2019-04-03T05:56:35.231Z,8.00
2019-04-03T05:59:03.699Z,8.20
2019-04-03T06:01:31.730Z,8.30
2019-04-03T06:03:59.747Z,8.60
2019-04-03T06:06:27.504Z,8.60
2019-04-03T06:08:58.218Z,8.80
2019-04-03T06:11:26.445Z,9.00
2019-04-03T06:13:54.333Z,9.00
2019-04-03T06:16:24.572Z,9.30
2019-04-03T06:18:52.090Z,9.20
2019-04-03T06:21:20.273Z,9.50
2019-04-03T06:23:48.525Z,9.70
2019-04-03T06:26:16.508Z,9.80
2019-04-03T06:28:46.360Z,10.10
2019-04-03T06:31:14.649Z,10.40
2019-04-03T06:33:42.582Z,10.30
2019-04-03T06:36:10.357Z,10.40
2019-04-03T06:38:38.220Z,10.90
2019-04-03T06:41:07.784Z,11.10
2019-04-03T06:43:35.807Z,11.20
2019-04-03T06:46:03.780Z,11.10
2019-04-03T06:48:31.865Z,11.40
2019-04-03T06:50:59.751Z,11.80
2019-04-03T06:53:28.790Z,11.70
2019-04-03T06:55:58.771Z,11.60
2019-04-03T06:58:36.846Z,11.70
2019-04-03T07:00:56.670Z,11.90
2019-04-03T07:03:24.790Z,12.40
2019-04-03T07:05:52.774Z,12.50
2019-04-03T07:08:30.064Z,12.90
2019-04-03T07:10:54.900Z,13.30
2019-04-03T07:13:20.610Z,13.50
2019-04-03T07:15:49.081Z,13.70
2019-04-03T07:18:16.985Z,13.40
2019-04-03T07:20:46.292Z,13.50
2019-04-03T07:23:14.195Z,13.80
2019-04-03T07:25:42.103Z,13.90
2019-04-03T07:28:10.296Z,14.20
2019-04-03T07:30:38.311Z,14.30
2019-04-03T07:33:06.455Z,14.10
2019-04-03T07:35:34.271Z,14.10
2019-04-03T07:38:02.588Z,12.60
2019-04-03T07:40:30.777Z,14.20
2019-04-03T07:43:00.323Z,14.40
2019-04-03T07:45:28.199Z,14.80
2019-04-03T07:47:56.006Z,14.60
2019-04-03T07:50:24.098Z,14.80
2019-04-03T07:52:52.247Z,14.00
2019-04-03T07:55:20.587Z,14.70
2019-04-03T07:57:52.787Z,14.60
2019-04-03T08:00:21.107Z,14.90
2019-04-03T08:02:50.029Z,14.50
2019-04-03T08:05:19.645Z,14.40
2019-04-03T08:07:48.888Z,12.90
2019-04-03T08:10:16.957Z,14.50
2019-04-03T08:12:45.022Z,13.90
2019-04-03T08:15:13.898Z,14.40
2019-04-03T08:17:42.007Z,15.00
2019-04-03T08:20:10.298Z,15.10
2019-04-03T08:22:38.096Z,15.20
2019-04-03T08:25:06.686Z,15.20
2019-04-03T08:27:34.808Z,15.60
2019-04-03T08:30:03.552Z,15.40
2019-04-03T08:32:31.561Z,15.70
2019-04-03T08:35:02.797Z,15.80
2019-04-03T08:37:32.631Z,15.90
2019-04-03T08:40:00.774Z,15.80
2019-04-03T08:42:30.798Z,15.90
2019-04-03T08:44:58.324Z,15.70
2019-04-03T08:47:26.392Z,15.70
2019-04-03T08:49:56.448Z,16.30
2019-04-03T08:52:24.068Z,16.40
2019-04-03T08:54:52.022Z,15.00
2019-04-03T08:57:22.323Z,16.20
2019-04-03T08:59:51.724Z,16.00
2019-04-03T09:02:19.823Z,16.30
2019-04-03T09:04:48.724Z,16.10
2019-04-03T09:07:16.519Z,16.20
2019-04-03T09:09:44.926Z,16.00
2019-04-03T09:12:12.771Z,16.40
2019-04-03T09:14:40.931Z,16.50
2019-04-03T09:17:08.631Z,16.30
2019-04-03T09:19:40.705Z,16.50
2019-04-03T09:22:09.075Z,16.50
2019-04-03T09:24:37.081Z,16.60
2019-04-03T09:27:05.007Z,16.70
2019-04-03T09:29:33.160Z,16.50
2019-04-03T09:32:01.465Z,16.70
2019-04-03T09:34:30.497Z,16.80
2019-04-03T09:36:59.698Z,16.20
2019-04-03T09:39:27.961Z,17.70
2019-04-03T09:42:16.810Z,17.40
2019-04-03T09:44:44.721Z,17.60
2019-04-03T09:47:13.208Z,17.20
2019-04-03T09:49:43.795Z,17.00
2019-04-03T09:52:10.716Z,16.90
2019-04-03T09:54:38.432Z,16.70
2019-04-03T09:57:06.045Z,17.10
2019-04-03T09:59:33.811Z,17.20
2019-04-03T10:02:01.799Z,17.40
2019-04-03T10:04:29.707Z,17.30
2019-04-03T10:06:57.484Z,17.90
2019-04-03T10:09:25.195Z,18.10
2019-04-03T10:11:52.873Z,18.20
2019-04-03T10:14:20.718Z,18.20
2019-04-03T10:16:48.611Z,18.40
2019-04-03T10:19:16.200Z,18.60
2019-04-03T10:21:43.768Z,18.80
2019-04-03T10:24:11.387Z,18.90
2019-04-03T10:26:40.277Z,18.60
2019-04-03T10:29:08.297Z,18.60
2019-04-03T10:31:36.106Z,18.80
2019-04-03T10:34:04.202Z,18.50
2019-04-03T10:36:32.213Z,18.40
2019-04-03T10:39:00.177Z,18.60
2019-04-03T10:41:28.748Z,18.30
2019-04-03T10:43:56.965Z,18.20
2019-04-03T10:46:24.665Z,18.10
2019-04-03T10:48:52.206Z,18.00
2019-04-03T10:51:19.722Z,18.40
2019-04-03T10:53:47.271Z,18.60
2019-04-03T10:56:14.862Z,18.80
2019-04-03T10:58:43.749Z,18.80
2019-04-03T11:01:11.425Z,18.20
2019-04-03T11:03:38.988Z,18.10
2019-04-03T11:06:06.529Z,18.10
2019-04-03T11:08:34.126Z,18.00
2019-04-03T11:11:04.261Z,18.00
2019-04-03T11:13:33.740Z,18.10
2019-04-03T11:16:00.314Z,18.40
2019-04-03T11:18:28.235Z,18.40
2019-04-03T11:20:55.807Z,18.20
2019-04-03T11:23:36.861Z,18.30
2019-04-03T11:25:52.711Z,18.30
2019-04-03T11:28:20.723Z,18.20
2019-04-03T11:30:51.122Z,18.20
2019-04-03T11:33:17.942Z,18.30
2019-04-03T11:35:45.628Z,18.50
2019-04-03T11:38:21.036Z,18.80
2019-04-03T11:40:42.397Z,18.90
2019-04-03T11:43:09.950Z,18.80
2019-04-03T11:45:37.431Z,19.00
2019-04-03T11:48:05.306Z,19.20
2019-04-03T11:50:32.945Z,19.30
2019-04-03T11:53:02.407Z,19.50
2019-04-03T11:55:30.024Z,19.60
2019-04-03T11:57:58.124Z,19.40
2019-04-03T12:00:29.943Z,19.50
2019-04-03T12:02:57.683Z,19.40
2019-04-03T12:05:25.340Z,19.60
2019-04-03T12:07:55.612Z,19.60
2019-04-03T12:10:24.909Z,19.40
2019-04-03T12:12:51.952Z,19.70
2019-04-03T12:15:21.536Z,19.90
2019-04-03T12:17:48.990Z,20.10
2019-04-03T12:20:16.770Z,20.10
2019-04-03T12:22:44.448Z,20.30
2019-04-03T12:25:12.865Z,20.70
2019-04-03T12:27:40.600Z,21.00
2019-04-03T12:30:08.676Z,20.50
2019-04-03T12:32:40.998Z,20.60
2019-04-03T12:35:07.280Z,20.30
2019-04-03T12:37:35.989Z,20.30
2019-04-03T12:40:05.041Z,20.50
2019-04-03T12:42:32.620Z,20.50
2019-04-03T12:45:00.234Z,20.40
2019-04-03T12:47:28.690Z,20.70
2019-04-03T12:49:56.649Z,20.60
2019-04-03T12:52:24.379Z,20.80
2019-04-03T12:54:53.760Z,20.40
2019-04-03T12:57:21.365Z,19.80
2019-04-03T12:59:48.972Z,19.70
2019-04-03T13:02:17.327Z,19.90
2019-04-03T13:04:45.037Z,20.00
2019-04-03T13:07:14.133Z,20.00
2019-04-03T13:09:42.109Z,20.20
2019-04-03T13:12:09.998Z,19.90
2019-04-03T13:14:37.560Z,20.10
2019-04-03T13:17:05.152Z,19.70
2019-04-03T13:19:33.006Z,19.50
2019-04-03T13:22:00.587Z,19.50
2019-04-03T13:24:28.233Z,19.70
2019-04-03T13:26:58.013Z,19.50
2019-04-03T13:29:25.495Z,19.70
2019-04-03T13:31:53.090Z,19.50
2019-04-03T13:34:20.851Z,19.60
2019-04-03T13:36:50.987Z,19.50
2019-04-03T13:39:17.917Z,19.50
2019-04-03T13:41:46.019Z,19.50
2019-04-03T13:44:13.639Z,19.60
2019-04-03T13:46:48.903Z,19.50
2019-04-03T13:49:18.055Z,19.60
2019-04-03T13:51:45.895Z,19.60
2019-04-03T13:54:13.691Z,19.70
2019-04-03T13:56:43.118Z,19.70
2019-04-03T13:59:10.854Z,19.40
2019-04-03T14:01:40.263Z,19.40
2019-04-03T14:04:07.947Z,19.50
2019-04-03T14:06:36.227Z,19.60
2019-04-03T14:09:06.467Z,19.60
2019-04-03T14:11:34.238Z,19.70
2019-04-03T14:14:01.766Z,19.70
2019-04-03T14:16:29.534Z,19.60
2019-04-03T14:18:57.126Z,19.30
2019-04-03T14:21:27.348Z,19.10
2019-04-03T14:23:54.261Z,19.10
2019-04-03T14:26:21.766Z,19.00
2019-04-03T14:28:49.368Z,19.00
2019-04-03T14:31:18.089Z,18.90
2019-04-03T14:33:47.166Z,18.60
2019-04-03T14:36:18.481Z,18.50
2019-04-03T14:38:44.782Z,18.20
2019-04-03T14:41:12.869Z,18.10
2019-04-03T14:43:40.782Z,17.90
2019-04-03T14:46:08.531Z,17.10
2019-04-03T14:48:36.295Z,16.40
2019-04-03T14:51:07.197Z,16.30
2019-04-03T14:53:35.575Z,15.30
2019-04-03T14:56:06.224Z,15.90
2019-04-03T14:58:34.023Z,15.60
2019-04-03T15:01:03.174Z,15.40
2019-04-03T15:03:33.518Z,15.00
2019-04-03T15:06:01.358Z,14.60
2019-04-03T15:08:29.677Z,14.30
2019-04-03T15:10:57.772Z,14.00
2019-04-03T15:13:36.695Z,13.80
2019-04-03T15:16:05.763Z,13.70
2019-04-03T15:18:36.556Z,13.70
2019-04-03T15:21:04.245Z,13.80
2019-04-03T15:24:17.706Z,14.10
2019-04-03T15:26:55.041Z,15.40
2019-04-03T15:45:34.212Z,17.20
2019-04-03T15:48:01.842Z,17.20
2019-04-03T15:50:32.110Z,17.50
2019-04-03T15:52:59.179Z,17.70
2019-04-03T15:55:27.282Z,18.10
2019-04-03T15:57:55.053Z,17.50
2019-04-03T16:00:25.252Z,17.30
2019-04-03T16:02:52.998Z,16.70
2019-04-03T16:05:30.140Z,16.50
2019-04-03T16:07:56.301Z,16.60
2019-04-03T16:10:24.663Z,16.70
2019-04-03T16:12:56.792Z,16.40
2019-04-03T16:15:24.634Z,16.40
2019-04-03T16:17:52.246Z,16.60
2019-04-03T16:20:20.323Z,16.40
2019-04-03T16:23:03.852Z,15.90
2019-04-03T16:25:38.391Z,15.90
2019-04-03T16:28:09.759Z,15.80
2019-04-03T16:30:38.144Z,15.50
2019-04-03T16:33:13.656Z,15.40
2019-04-03T16:35:35.107Z,15.30
2019-04-03T16:38:02.785Z,15.20
2019-04-03T16:40:31.756Z,15.30
2019-04-03T16:43:00.154Z,15.70
2019-04-03T16:45:28.806Z,15.90
2019-04-03T16:47:56.544Z,16.10
2019-04-03T16:50:27.306Z,16.60
2019-04-03T16:52:54.526Z,16.40
2019-04-03T16:55:22.812Z,16.90
2019-04-03T16:57:53.238Z,17.00
2019-04-03T17:00:22.746Z,16.90
2019-04-03T17:02:50.667Z,16.70
2019-04-03T17:05:18.829Z,16.40
2019-04-03T17:07:48.691Z,16.10
2019-04-03T17:10:16.939Z,15.60
2019-04-03T17:12:46.052Z,15.60
2019-04-03T17:15:14.693Z,15.30
2019-04-03T17:17:45.692Z,15.10
2019-04-03T17:20:16.204Z,14.80
2019-04-03T17:22:46.156Z,14.50
2019-04-03T17:25:16.342Z,14.50
2019-04-03T17:27:54.089Z,14.20
2019-04-03T17:30:18.270Z,14.10
2019-04-03T17:32:47.810Z,14.00
2019-04-03T17:35:16.261Z,14.10
2019-04-03T17:37:43.822Z,13.90
2019-04-03T17:40:12.278Z,13.90
2019-04-03T17:42:41.980Z,14.00
2019-04-03T17:45:09.898Z,13.90
2019-04-03T17:47:41.203Z,13.90
2019-04-03T17:50:12.994Z,13.80
2019-04-03T17:52:40.663Z,11.80
2019-04-03T17:55:10.053Z,13.90
2019-04-03T17:57:38.876Z,13.80
2019-04-03T18:00:09.618Z,13.80
2019-04-03T18:02:39.634Z,13.70
2019-04-03T18:05:19.595Z,13.60
2019-04-03T18:07:47.149Z,13.40
2019-04-03T18:10:16.716Z,13.30
2019-04-03T18:12:45.869Z,13.30
2019-04-03T18:15:14.064Z,13.10
2019-04-03T18:17:41.608Z,13.00
2019-04-03T18:20:12.577Z,12.90
2019-04-03T18:22:38.803Z,12.90
2019-04-03T18:25:08.341Z,12.70
2019-04-03T18:27:36.611Z,12.60
2019-04-03T18:30:07.283Z,12.50
2019-04-03T18:32:34.912Z,12.30
2019-04-03T18:35:25.566Z,12.20
2019-04-03T18:37:52.721Z,12.00
2019-04-03T18:40:20.346Z,11.90
2019-04-03T18:42:51.416Z,11.70
2019-04-03T18:45:25.529Z,11.70
2019-04-03T18:47:51.252Z,11.60
2019-04-03T18:50:19.072Z,11.40
2019-04-03T18:52:46.629Z,11.30
2019-04-03T18:55:14.797Z,11.30
2019-04-03T18:57:42.457Z,11.20
2019-04-03T19:00:10.483Z,11.10
2019-04-03T19:02:38.049Z,11.00
2019-04-03T19:05:08.763Z,10.80
2019-04-03T19:07:36.946Z,10.80
2019-04-03T19:10:07.429Z,10.70
2019-04-03T19:12:36.040Z,10.40
2019-04-03T19:15:17.598Z,10.20
2019-04-03T19:17:59.527Z,10.10
2019-04-03T19:20:17.922Z,9.20
2019-04-03T19:22:45.544Z,10.00
2019-04-03T19:25:13.847Z,9.90
2019-04-03T19:28:16.177Z,9.20
2019-04-03T19:30:16.041Z,9.70
2019-04-03T19:32:44.001Z,9.60
2019-04-03T19:35:36.301Z,9.40
2019-04-03T19:38:05.025Z,9.40
2019-04-03T19:40:33.198Z,9.40
2019-04-03T19:43:00.861Z,9.30
2019-04-03T19:45:29.064Z,9.30
2019-04-03T19:47:56.855Z,9.30
2019-04-03T19:50:32.471Z,9.50
2019-04-03T19:52:57.463Z,9.50
2019-04-03T19:55:25.127Z,9.70
2019-04-03T19:57:52.886Z,9.50
2019-04-03T20:00:20.508Z,9.50
2019-04-03T20:02:48.786Z,9.50
2019-04-03T20:05:18.554Z,9.40
2019-04-03T20:07:45.732Z,9.40
2019-04-03T20:10:13.796Z,9.40
2019-04-03T20:12:41.336Z,9.40
2019-04-03T20:15:09.208Z,9.40
2019-04-03T20:17:37.089Z,9.30
2019-04-03T20:20:06.659Z,9.30
2019-04-03T20:22:37.156Z,9.20
2019-04-03T20:25:03.995Z,9.30
2019-04-03T20:27:31.738Z,9.20
2019-04-03T20:30:01.522Z,9.00
2019-04-03T20:32:29.071Z,8.90
2019-04-03T20:34:57.851Z,8.90
2019-04-03T20:37:27.208Z,8.90
2019-04-03T20:39:55.151Z,8.90
2019-04-03T20:42:22.879Z,8.90
2019-04-03T20:44:52.058Z,8.80
2019-04-03T20:47:19.676Z,8.90
2019-04-03T20:49:47.469Z,9.10
2019-04-03T20:52:15.215Z,9.40
2019-04-03T20:54:43.016Z,8.70
2019-04-03T20:57:13.365Z,8.70
2019-04-03T20:59:42.722Z,8.60
2019-04-03T21:02:09.875Z,8.60
2019-04-03T21:04:37.663Z,8.70
2019-04-03T21:07:05.854Z,8.60
2019-04-03T21:09:33.652Z,8.80
2019-04-03T21:12:02.976Z,8.90
2019-04-03T21:14:31.574Z,8.90
2019-04-03T21:17:01.486Z,9.10
2019-04-03T21:19:29.548Z,9.20
2019-04-03T21:21:57.707Z,9.20
2019-04-03T21:24:34.311Z,9.20
2019-04-03T21:27:04.163Z,9.20
2019-04-03T21:29:33.135Z,9.20
2019-04-03T21:32:02.132Z,9.20
2019-04-03T21:34:32.751Z,9.20
2019-04-03T21:37:02.078Z,8.60
2019-04-03T21:39:33.645Z,9.20
2019-04-03T21:42:02.520Z,9.10
2019-04-03T21:44:32.567Z,9.00
2019-04-03T21:47:34.487Z,8.90
2019-04-03T21:50:05.589Z,8.90
2019-04-03T21:52:34.535Z,8.70
2019-04-03T21:55:04.929Z,8.60
2019-04-03T21:57:33.899Z,8.60
2019-04-03T22:00:13.200Z,8.60
2019-04-03T22:05:43.233Z,8.40
2019-04-03T22:08:21.671Z,8.60
2019-04-03T22:10:50.559Z,8.70
2019-04-03T22:13:18.526Z,8.40
2019-04-03T22:15:46.495Z,8.30
2019-04-03T22:18:14.479Z,8.30
2019-04-03T22:20:42.508Z,8.40
2019-04-03T22:23:10.633Z,8.40
2019-04-03T22:25:39.501Z,8.30
2019-04-03T22:28:07.797Z,8.20
2019-04-03T22:30:35.702Z,8.00
2019-04-03T22:33:03.911Z,7.80
2019-04-03T22:35:32.150Z,7.70
2019-04-03T22:38:00.997Z,7.80
2019-04-03T22:40:28.757Z,7.60
2019-04-03T22:42:56.552Z,7.70
2019-04-03T22:45:24.364Z,7.50
2019-04-03T22:47:52.300Z,7.50
2019-04-03T22:50:20.409Z,7.30
2019-04-03T22:52:48.120Z,7.70
2019-04-03T22:55:16.144Z,7.30
2019-04-03T22:57:44.076Z,7.30
2019-04-03T23:00:11.876Z,7.20
2019-04-03T23:02:40.717Z,7.20
2019-04-03T23:05:08.779Z,7.40
2019-04-03T23:07:36.882Z,7.30
2019-04-03T23:10:05.637Z,7.50
2019-04-03T23:12:33.998Z,7.50
2019-04-03T23:15:02.098Z,7.40
2019-04-03T23:17:30.027Z,7.40
2019-04-03T23:19:58.235Z,7.50
2019-04-03T23:22:26.608Z,7.30
2019-04-03T23:24:54.819Z,7.20
2019-04-03T23:27:24.268Z,7.10
2019-04-03T23:29:52.411Z,9.70
2019-04-03T23:32:20.458Z,7.10
2019-04-03T23:34:49.739Z,7.50
2019-04-03T23:37:17.964Z,6.90
2019-04-03T23:39:45.783Z,6.80
2019-04-03T23:42:19.997Z,6.80
2019-04-03T23:44:47.935Z,6.80
2019-04-03T23:47:16.595Z,7.20
2019-04-03T23:49:45.181Z,7.20
2019-04-03T23:52:13.469Z,7.40
2019-04-03T23:54:41.539Z,5.60
2019-04-03T23:57:10.310Z,7.30
2019-04-03T23:59:42.447Z,7.20
